sensor_id;sensor_type;location;lat;lon;timestamp;P1;durP1;ratioP1;P2;durP2;ratioP2
23632;SDS011;11993;48.748;9.166;2022-08-19T00:01:43;12.05;;;10.15;;
23632;SDS011;11993;48.748;9.166;2022-08-19T00:04:11;13.70;;;10.38;;
23632;SDS011;11993;48.748;9.166;2022-08-19T00:06:39;11.77;;;10.57;;
23632;SDS011;11993;48.748;9.166;2022-08-19T00:09:07;13.23;;;11.40;;
23632;SDS011;11993;48.748;9.166;2022-08-19T00:11:34;11.88;;;10.63;;
23632;SDS011;11993;48.748;9.166;2022-08-19T00:14:02;11.73;;;10.13;;
23632;SDS011;11993;48.748;9.166;2022-08-19T00:16:28;13.85;;;11.80;;
23632;SDS011;11993;48.748;9.166;2022-08-19T00:18:54;13.48;;;11.50;;
23632;SDS011;11993;48.748;9.166;2022-08-19T00:21:20;18.42;;;12.00;;
23632;SDS011;11993;48.748;9.166;2022-08-19T00:23:46;13.50;;;11.25;;
23632;SDS011;11993;48.748;9.166;2022-08-19T00:26:12;13.80;;;10.93;;
23632;SDS011;11993;48.748;9.166;2022-08-19T00:28:38;13.77;;;11.38;;
23632;SDS011;11993;48.748;9.166;2022-08-19T00:31:05;16.05;;;11.38;;
23632;SDS011;11993;48.748;9.166;2022-08-19T00:33:32;13.23;;;10.52;;
23632;SDS011;11993;48.748;9.166;2022-08-19T00:35:58;12.07;;;10.77;;
23632;SDS011;11993;48.748;9.166;2022-08-19T00:38:25;12.13;;;10.77;;
23632;SDS011;11993;48.748;9.166;2022-08-19T00:40:50;16.52;;;11.80;;
23632;SDS011;11993;48.748;9.166;2022-08-19T00:43:18;13.38;;;11.15;;
23632;SDS011;11993;48.748;9.166;2022-08-19T00:45:46;12.95;;;11.15;;
23632;SDS011;11993;48.748;9.166;2022-08-19T00:48:12;15.25;;;12.25;;
23632;SDS011;11993;48.748;9.166;2022-08-19T00:50:39;11.88;;;10.68;;
23632;SDS011;11993;48.748;9.166;2022-08-19T00:53:07;12.27;;;10.98;;
23632;SDS011;11993;48.748;9.166;2022-08-19T00:55:34;13.15;;;10.82;;
23632;SDS011;11993;48.748;9.166;2022-08-19T00:58:02;11.93;;;10.43;;
23632;SDS011;11993;48.748;9.166;2022-08-19T01:00:32;14.90;;;11.73;;
23632;SDS011;11993;48.748;9.166;2022-08-19T01:03:02;13.27;;;11.57;;
23632;SDS011;11993;48.748;9.166;2022-08-19T01:05:28;12.77;;;11.48;;
23632;SDS011;11993;48.748;9.166;2022-08-19T01:07:55;12.63;;;11.20;;
23632;SDS011;11993;48.748;9.166;2022-08-19T01:10:24;11.98;;;10.43;;
23632;SDS011;11993;48.748;9.166;2022-08-19T01:12:51;12.82;;;11.40;;
23632;SDS011;11993;48.748;9.166;2022-08-19T01:15:20;12.93;;;11.20;;
23632;SDS011;11993;48.748;9.166;2022-08-19T01:17:49;15.95;;;12.88;;
23632;SDS011;11993;48.748;9.166;2022-08-19T01:20:18;14.50;;;12.32;;
23632;SDS011;11993;48.748;9.166;2022-08-19T01:22:49;14.10;;;11.95;;
23632;SDS011;11993;48.748;9.166;2022-08-19T01:25:21;13.05;;;11.65;;
23632;SDS011;11993;48.748;9.166;2022-08-19T01:27:50;13.68;;;11.95;;
23632;SDS011;11993;48.748;9.166;2022-08-19T01:30:19;18.20;;;11.77;;
23632;SDS011;11993;48.748;9.166;2022-08-19T01:32:52;12.90;;;11.50;;
23632;SDS011;11993;48.748;9.166;2022-08-19T01:35:19;13.75;;;11.57;;
23632;SDS011;11993;48.748;9.166;2022-08-19T01:37:46;13.00;;;11.32;;
23632;SDS011;11993;48.748;9.166;2022-08-19T01:40:14;13.88;;;11.43;;
23632;SDS011;11993;48.748;9.166;2022-08-19T01:42:40;15.35;;;11.98;;
23632;SDS011;11993;48.748;9.166;2022-08-19T01:45:06;12.98;;;11.57;;
23632;SDS011;11993;48.748;9.166;2022-08-19T01:47:33;12.52;;;11.23;;
23632;SDS011;11993;48.748;9.166;2022-08-19T01:50:00;17.67;;;12.13;;
23632;SDS011;11993;48.748;9.166;2022-08-19T01:52:25;14.45;;;12.25;;
23632;SDS011;11993;48.748;9.166;2022-08-19T01:54:52;17.05;;;12.50;;
23632;SDS011;11993;48.748;9.166;2022-08-19T01:57:17;17.42;;;11.45;;
23632;SDS011;11993;48.748;9.166;2022-08-19T01:59:43;13.90;;;12.40;;
23632;SDS011;11993;48.748;9.166;2022-08-19T02:02:10;15.60;;;12.30;;
23632;SDS011;11993;48.748;9.166;2022-08-19T02:04:36;14.00;;;12.30;;
23632;SDS011;11993;48.748;9.166;2022-08-19T02:07:03;17.50;;;12.60;;
23632;SDS011;11993;48.748;9.166;2022-08-19T02:09:28;16.42;;;12.43;;
23632;SDS011;11993;48.748;9.166;2022-08-19T02:11:55;15.93;;;13.02;;
23632;SDS011;11993;48.748;9.166;2022-08-19T02:14:21;16.02;;;13.27;;
23632;SDS011;11993;48.748;9.166;2022-08-19T02:16:46;15.07;;;12.57;;
23632;SDS011;11993;48.748;9.166;2022-08-19T02:19:12;16.77;;;13.25;;
23632;SDS011;11993;48.748;9.166;2022-08-19T02:21:38;14.45;;;11.85;;
23632;SDS011;11993;48.748;9.166;2022-08-19T02:24:03;14.70;;;12.82;;
23632;SDS011;11993;48.748;9.166;2022-08-19T02:26:29;14.95;;;13.30;;
23632;SDS011;11993;48.748;9.166;2022-08-19T02:28:56;17.90;;;14.18;;
23632;SDS011;11993;48.748;9.166;2022-08-19T02:31:22;19.98;;;14.88;;
23632;SDS011;11993;48.748;9.166;2022-08-19T02:33:49;16.98;;;14.02;;
23632;SDS011;11993;48.748;9.166;2022-08-19T02:36:16;14.75;;;12.88;;
23632;SDS011;11993;48.748;9.166;2022-08-19T02:38:42;17.08;;;13.88;;
23632;SDS011;11993;48.748;9.166;2022-08-19T02:41:12;21.00;;;14.85;;
23632;SDS011;11993;48.748;9.166;2022-08-19T02:43:38;15.93;;;13.50;;
23632;SDS011;11993;48.748;9.166;2022-08-19T02:46:12;17.25;;;14.00;;
23632;SDS011;11993;48.748;9.166;2022-08-19T02:48:38;18.50;;;15.35;;
23632;SDS011;11993;48.748;9.166;2022-08-19T02:51:04;15.82;;;13.27;;
23632;SDS011;11993;48.748;9.166;2022-08-19T02:53:30;19.17;;;15.27;;
23632;SDS011;11993;48.748;9.166;2022-08-19T02:55:56;19.05;;;15.10;;
23632;SDS011;11993;48.748;9.166;2022-08-19T02:58:22;17.42;;;14.90;;
23632;SDS011;11993;48.748;9.166;2022-08-19T03:00:49;20.75;;;16.23;;
23632;SDS011;11993;48.748;9.166;2022-08-19T03:03:16;20.58;;;18.08;;
23632;SDS011;11993;48.748;9.166;2022-08-19T03:05:43;20.55;;;15.00;;
23632;SDS011;11993;48.748;9.166;2022-08-19T03:08:10;21.58;;;16.13;;
23632;SDS011;11993;48.748;9.166;2022-08-19T03:10:47;21.02;;;15.90;;
23632;SDS011;11993;48.748;9.166;2022-08-19T03:13:13;21.92;;;18.27;;
23632;SDS011;11993;48.748;9.166;2022-08-19T03:15:44;22.60;;;17.65;;
23632;SDS011;11993;48.748;9.166;2022-08-19T03:18:12;22.33;;;17.88;;
23632;SDS011;11993;48.748;9.166;2022-08-19T03:20:42;22.33;;;18.33;;
23632;SDS011;11993;48.748;9.166;2022-08-19T03:23:13;25.92;;;18.60;;
23632;SDS011;11993;48.748;9.166;2022-08-19T03:25:39;25.27;;;18.60;;
23632;SDS011;11993;48.748;9.166;2022-08-19T03:28:08;23.60;;;18.80;;
23632;SDS011;11993;48.748;9.166;2022-08-19T03:30:39;23.90;;;19.05;;
23632;SDS011;11993;48.748;9.166;2022-08-19T03:33:06;21.33;;;18.45;;
23632;SDS011;11993;48.748;9.166;2022-08-19T03:35:33;20.90;;;18.00;;
23632;SDS011;11993;48.748;9.166;2022-08-19T03:38:01;19.88;;;17.10;;
23632;SDS011;11993;48.748;9.166;2022-08-19T03:40:28;25.50;;;19.95;;
23632;SDS011;11993;48.748;9.166;2022-08-19T03:42:55;26.80;;;19.55;;
23632;SDS011;11993;48.748;9.166;2022-08-19T03:45:22;22.60;;;18.98;;
23632;SDS011;11993;48.748;9.166;2022-08-19T03:47:47;23.60;;;19.88;;
23632;SDS011;11993;48.748;9.166;2022-08-19T03:50:13;25.02;;;17.38;;
23632;SDS011;11993;48.748;9.166;2022-08-19T03:52:39;27.45;;;20.92;;
23632;SDS011;11993;48.748;9.166;2022-08-19T03:55:04;26.48;;;20.40;;
23632;SDS011;11993;48.748;9.166;2022-08-19T03:57:31;24.85;;;20.42;;
23632;SDS011;11993;48.748;9.166;2022-08-19T03:59:57;20.05;;;17.17;;
23632;SDS011;11993;48.748;9.166;2022-08-19T04:02:23;25.48;;;18.77;;
23632;SDS011;11993;48.748;9.166;2022-08-19T04:04:49;23.85;;;20.27;;
23632;SDS011;11993;48.748;9.166;2022-08-19T04:07:20;27.75;;;20.55;;
23632;SDS011;11993;48.748;9.166;2022-08-19T04:09:46;23.17;;;19.98;;
23632;SDS011;11993;48.748;9.166;2022-08-19T04:12:12;22.98;;;19.85;;
23632;SDS011;11993;48.748;9.166;2022-08-19T04:14:40;26.83;;;20.27;;
23632;SDS011;11993;48.748;9.166;2022-08-19T04:17:06;25.00;;;18.55;;
23632;SDS011;11993;48.748;9.166;2022-08-19T04:19:32;30.55;;;22.17;;
23632;SDS011;11993;48.748;9.166;2022-08-19T04:21:59;28.65;;;22.10;;
23632;SDS011;11993;48.748;9.166;2022-08-19T04:24:25;27.92;;;21.02;;
23632;SDS011;11993;48.748;9.166;2022-08-19T04:26:51;27.50;;;21.80;;
23632;SDS011;11993;48.748;9.166;2022-08-19T04:29:21;27.35;;;22.25;;
23632;SDS011;11993;48.748;9.166;2022-08-19T04:31:50;30.50;;;21.70;;
23632;SDS011;11993;48.748;9.166;2022-08-19T04:34:19;26.63;;;21.40;;
23632;SDS011;11993;48.748;9.166;2022-08-19T04:36:49;25.70;;;21.08;;
23632;SDS011;11993;48.748;9.166;2022-08-19T04:39:20;28.67;;;22.20;;
23632;SDS011;11993;48.748;9.166;2022-08-19T04:42:08;24.90;;;20.48;;
23632;SDS011;11993;48.748;9.166;2022-08-19T04:44:52;27.10;;;21.13;;
23632;SDS011;11993;48.748;9.166;2022-08-19T04:47:17;27.17;;;20.60;;
23632;SDS011;11993;48.748;9.166;2022-08-19T04:49:43;29.88;;;22.60;;
23632;SDS011;11993;48.748;9.166;2022-08-19T04:52:08;28.10;;;21.38;;
23632;SDS011;11993;48.748;9.166;2022-08-19T04:54:34;26.50;;;20.02;;
23632;SDS011;11993;48.748;9.166;2022-08-19T04:57:00;25.58;;;20.10;;
23632;SDS011;11993;48.748;9.166;2022-08-19T04:59:25;25.73;;;20.40;;
23632;SDS011;11993;48.748;9.166;2022-08-19T05:01:51;28.15;;;21.40;;
23632;SDS011;11993;48.748;9.166;2022-08-19T05:04:19;29.75;;;22.83;;
23632;SDS011;11993;48.748;9.166;2022-08-19T05:06:47;38.08;;;26.50;;
23632;SDS011;11993;48.748;9.166;2022-08-19T05:09:13;26.58;;;20.48;;
23632;SDS011;11993;48.748;9.166;2022-08-19T05:11:40;23.55;;;20.02;;
23632;SDS011;11993;48.748;9.166;2022-08-19T05:14:06;26.17;;;20.98;;
23632;SDS011;11993;48.748;9.166;2022-08-19T05:16:33;29.58;;;21.30;;
23632;SDS011;11993;48.748;9.166;2022-08-19T05:18:59;27.65;;;21.60;;
23632;SDS011;11993;48.748;9.166;2022-08-19T05:21:43;34.20;;;22.63;;
23632;SDS011;11993;48.748;9.166;2022-08-19T05:24:28;27.48;;;20.67;;
23632;SDS011;11993;48.748;9.166;2022-08-19T05:26:55;24.13;;;20.67;;
23632;SDS011;11993;48.748;9.166;2022-08-19T05:29:25;22.98;;;18.60;;
23632;SDS011;11993;48.748;9.166;2022-08-19T05:31:52;30.90;;;22.50;;
23632;SDS011;11993;48.748;9.166;2022-08-19T05:34:19;38.60;;;31.15;;
23632;SDS011;11993;48.748;9.166;2022-08-19T05:36:47;28.13;;;21.33;;
23632;SDS011;11993;48.748;9.166;2022-08-19T05:39:18;29.20;;;20.80;;
23632;SDS011;11993;48.748;9.166;2022-08-19T05:41:45;25.90;;;20.85;;
23632;SDS011;11993;48.748;9.166;2022-08-19T05:44:12;24.33;;;19.30;;
23632;SDS011;11993;48.748;9.166;2022-08-19T05:46:40;25.90;;;20.40;;
23632;SDS011;11993;48.748;9.166;2022-08-19T05:49:08;23.70;;;18.50;;
23632;SDS011;11993;48.748;9.166;2022-08-19T05:51:34;25.27;;;19.17;;
23632;SDS011;11993;48.748;9.166;2022-08-19T05:54:01;30.05;;;19.90;;
23632;SDS011;11993;48.748;9.166;2022-08-19T05:56:27;25.95;;;19.88;;
23632;SDS011;11993;48.748;9.166;2022-08-19T05:58:55;24.20;;;19.67;;
23632;SDS011;11993;48.748;9.166;2022-08-19T06:01:21;24.08;;;20.65;;
23632;SDS011;11993;48.748;9.166;2022-08-19T06:03:47;27.90;;;20.00;;
23632;SDS011;11993;48.748;9.166;2022-08-19T06:06:13;27.13;;;21.15;;
23632;SDS011;11993;48.748;9.166;2022-08-19T06:08:40;24.92;;;18.48;;
23632;SDS011;11993;48.748;9.166;2022-08-19T06:11:12;24.25;;;17.90;;
23632;SDS011;11993;48.748;9.166;2022-08-19T06:13:42;24.35;;;19.70;;
23632;SDS011;11993;48.748;9.166;2022-08-19T06:16:09;23.58;;;18.55;;
23632;SDS011;11993;48.748;9.166;2022-08-19T06:18:35;25.15;;;19.45;;
23632;SDS011;11993;48.748;9.166;2022-08-19T06:21:00;28.55;;;18.75;;
23632;SDS011;11993;48.748;9.166;2022-08-19T06:23:29;23.25;;;18.45;;
23632;SDS011;11993;48.748;9.166;2022-08-19T06:25:55;24.27;;;19.77;;
23632;SDS011;11993;48.748;9.166;2022-08-19T06:28:21;24.88;;;19.77;;
23632;SDS011;11993;48.748;9.166;2022-08-19T06:30:48;23.48;;;18.42;;
23632;SDS011;11993;48.748;9.166;2022-08-19T06:33:14;25.83;;;20.60;;
23632;SDS011;11993;48.748;9.166;2022-08-19T06:35:40;28.85;;;24.15;;
23632;SDS011;11993;48.748;9.166;2022-08-19T06:38:06;35.85;;;28.52;;
23632;SDS011;11993;48.748;9.166;2022-08-19T06:40:32;26.45;;;22.98;;
23632;SDS011;11993;48.748;9.166;2022-08-19T06:42:57;33.50;;;23.23;;
23632;SDS011;11993;48.748;9.166;2022-08-19T06:45:24;30.02;;;22.55;;
23632;SDS011;11993;48.748;9.166;2022-08-19T06:47:52;28.05;;;20.60;;
23632;SDS011;11993;48.748;9.166;2022-08-19T06:50:21;25.88;;;22.00;;
23632;SDS011;11993;48.748;9.166;2022-08-19T06:52:49;30.98;;;22.52;;
23632;SDS011;11993;48.748;9.166;2022-08-19T06:55:15;29.83;;;25.20;;
23632;SDS011;11993;48.748;9.166;2022-08-19T06:57:41;25.98;;;22.05;;
23632;SDS011;11993;48.748;9.166;2022-08-19T07:00:07;26.30;;;20.10;;
23632;SDS011;11993;48.748;9.166;2022-08-19T07:02:39;24.15;;;19.98;;
23632;SDS011;11993;48.748;9.166;2022-08-19T07:05:06;22.58;;;20.13;;
23632;SDS011;11993;48.748;9.166;2022-08-19T07:07:32;25.90;;;21.58;;
23632;SDS011;11993;48.748;9.166;2022-08-19T07:09:57;26.33;;;21.45;;
23632;SDS011;11993;48.748;9.166;2022-08-19T07:12:23;22.50;;;19.92;;
23632;SDS011;11993;48.748;9.166;2022-08-19T07:14:48;26.83;;;21.17;;
23632;SDS011;11993;48.748;9.166;2022-08-19T07:17:14;28.75;;;21.45;;
23632;SDS011;11993;48.748;9.166;2022-08-19T07:19:40;25.40;;;19.20;;
23632;SDS011;11993;48.748;9.166;2022-08-19T07:22:08;25.65;;;20.85;;
23632;SDS011;11993;48.748;9.166;2022-08-19T07:24:34;24.23;;;20.98;;
23632;SDS011;11993;48.748;9.166;2022-08-19T07:27:01;26.67;;;20.50;;
23632;SDS011;11993;48.748;9.166;2022-08-19T07:29:29;26.67;;;19.83;;
23632;SDS011;11993;48.748;9.166;2022-08-19T07:31:58;25.63;;;21.25;;
23632;SDS011;11993;48.748;9.166;2022-08-19T07:34:24;31.23;;;21.60;;
23632;SDS011;11993;48.748;9.166;2022-08-19T07:36:51;27.35;;;21.38;;
23632;SDS011;11993;48.748;9.166;2022-08-19T07:39:25;27.13;;;21.75;;
23632;SDS011;11993;48.748;9.166;2022-08-19T07:41:54;28.25;;;22.50;;
23632;SDS011;11993;48.748;9.166;2022-08-19T07:44:20;23.48;;;19.50;;
23632;SDS011;11993;48.748;9.166;2022-08-19T07:46:52;26.25;;;21.20;;
23632;SDS011;11993;48.748;9.166;2022-08-19T07:49:20;26.70;;;20.27;;
23632;SDS011;11993;48.748;9.166;2022-08-19T07:51:47;23.45;;;19.95;;
23632;SDS011;11993;48.748;9.166;2022-08-19T07:54:14;22.85;;;19.23;;
23632;SDS011;11993;48.748;9.166;2022-08-19T07:56:41;21.42;;;17.63;;
23632;SDS011;11993;48.748;9.166;2022-08-19T07:59:07;30.35;;;18.77;;
23632;SDS011;11993;48.748;9.166;2022-08-19T08:01:34;23.85;;;19.08;;
23632;SDS011;11993;48.748;9.166;2022-08-19T08:04:00;22.20;;;17.80;;
23632;SDS011;11993;48.748;9.166;2022-08-19T08:06:44;21.33;;;18.15;;
23632;SDS011;11993;48.748;9.166;2022-08-19T08:09:33;25.08;;;19.50;;
23632;SDS011;11993;48.748;9.166;2022-08-19T08:12:03;27.05;;;22.48;;
23632;SDS011;11993;48.748;9.166;2022-08-19T08:14:41;26.10;;;20.10;;
23632;SDS011;11993;48.748;9.166;2022-08-19T08:17:09;24.83;;;19.48;;
23632;SDS011;11993;48.748;9.166;2022-08-19T08:19:35;21.20;;;18.05;;
23632;SDS011;11993;48.748;9.166;2022-08-19T08:22:01;22.08;;;19.63;;
23632;SDS011;11993;48.748;9.166;2022-08-19T08:24:28;26.83;;;19.10;;
23632;SDS011;11993;48.748;9.166;2022-08-19T08:26:58;22.80;;;17.80;;
23632;SDS011;11993;48.748;9.166;2022-08-19T08:29:26;25.52;;;19.77;;
23632;SDS011;11993;48.748;9.166;2022-08-19T08:31:54;21.17;;;18.13;;
23632;SDS011;11993;48.748;9.166;2022-08-19T08:34:20;25.63;;;20.02;;
23632;SDS011;11993;48.748;9.166;2022-08-19T08:36:46;24.50;;;20.20;;
23632;SDS011;11993;48.748;9.166;2022-08-19T08:39:13;26.80;;;21.08;;
23632;SDS011;11993;48.748;9.166;2022-08-19T08:44:21;33.20;;;21.88;;
23632;SDS011;11993;48.748;9.166;2022-08-19T08:50:04;25.48;;;20.60;;
23632;SDS011;11993;48.748;9.166;2022-08-19T08:52:33;26.55;;;21.08;;
23632;SDS011;11993;48.748;9.166;2022-08-19T08:55:06;26.27;;;20.40;;
23632;SDS011;11993;48.748;9.166;2022-08-19T08:57:36;25.20;;;21.02;;
23632;SDS011;11993;48.748;9.166;2022-08-19T09:03:06;28.25;;;21.38;;
23632;SDS011;11993;48.748;9.166;2022-08-19T09:05:43;23.10;;;20.55;;
23632;SDS011;11993;48.748;9.166;2022-08-19T09:11:10;24.42;;;19.27;;
23632;SDS011;11993;48.748;9.166;2022-08-19T09:16:18;25.15;;;19.13;;
23632;SDS011;11993;48.748;9.166;2022-08-19T09:18:47;25.40;;;19.02;;
23632;SDS011;11993;48.748;9.166;2022-08-19T09:21:16;26.10;;;20.25;;
23632;SDS011;11993;48.748;9.166;2022-08-19T09:23:42;23.77;;;18.38;;
23632;SDS011;11993;48.748;9.166;2022-08-19T09:26:13;19.55;;;17.23;;
23632;SDS011;11993;48.748;9.166;2022-08-19T09:28:41;25.85;;;17.60;;
23632;SDS011;11993;48.748;9.166;2022-08-19T09:31:09;18.77;;;16.75;;
23632;SDS011;11993;48.748;9.166;2022-08-19T09:33:35;19.77;;;16.88;;
23632;SDS011;11993;48.748;9.166;2022-08-19T09:36:02;20.73;;;18.00;;
23632;SDS011;11993;48.748;9.166;2022-08-19T09:38:33;18.77;;;16.40;;
23632;SDS011;11993;48.748;9.166;2022-08-19T09:41:16;22.67;;;17.98;;
23632;SDS011;11993;48.748;9.166;2022-08-19T09:43:44;24.08;;;18.13;;
23632;SDS011;11993;48.748;9.166;2022-08-19T09:46:11;25.55;;;17.95;;
23632;SDS011;11993;48.748;9.166;2022-08-19T09:48:37;20.27;;;17.00;;
23632;SDS011;11993;48.748;9.166;2022-08-19T09:51:08;19.02;;;16.33;;
23632;SDS011;11993;48.748;9.166;2022-08-19T09:53:35;19.27;;;15.70;;
23632;SDS011;11993;48.748;9.166;2022-08-19T09:56:01;24.90;;;17.52;;
23632;SDS011;11993;48.748;9.166;2022-08-19T09:58:28;15.57;;;13.80;;
23632;SDS011;11993;48.748;9.166;2022-08-19T10:00:55;18.70;;;15.20;;
23632;SDS011;11993;48.748;9.166;2022-08-19T10:03:22;22.67;;;15.43;;
23632;SDS011;11993;48.748;9.166;2022-08-19T10:05:47;20.48;;;15.40;;
23632;SDS011;11993;48.748;9.166;2022-08-19T10:08:13;18.90;;;15.60;;
23632;SDS011;11993;48.748;9.166;2022-08-19T10:11:00;14.93;;;13.35;;
23632;SDS011;11993;48.748;9.166;2022-08-19T10:13:28;21.17;;;15.25;;
23632;SDS011;11993;48.748;9.166;2022-08-19T10:15:55;17.27;;;13.35;;
23632;SDS011;11993;48.748;9.166;2022-08-19T10:18:26;24.10;;;16.13;;
23632;SDS011;11993;48.748;9.166;2022-08-19T10:20:52;20.20;;;15.00;;
23632;SDS011;11993;48.748;9.166;2022-08-19T10:23:26;16.42;;;13.27;;
23632;SDS011;11993;48.748;9.166;2022-08-19T10:25:54;18.77;;;13.35;;
23632;SDS011;11993;48.748;9.166;2022-08-19T10:28:24;16.42;;;12.57;;
23632;SDS011;11993;48.748;9.166;2022-08-19T10:30:49;14.95;;;11.98;;
23632;SDS011;11993;48.748;9.166;2022-08-19T10:33:15;16.00;;;12.93;;
23632;SDS011;11993;48.748;9.166;2022-08-19T10:35:40;16.23;;;11.75;;
23632;SDS011;11993;48.748;9.166;2022-08-19T10:38:06;16.95;;;12.60;;
23632;SDS011;11993;48.748;9.166;2022-08-19T10:40:31;14.13;;;12.32;;
23632;SDS011;11993;48.748;9.166;2022-08-19T10:42:57;16.75;;;11.98;;
23632;SDS011;11993;48.748;9.166;2022-08-19T10:45:23;16.95;;;13.18;;
23632;SDS011;11993;48.748;9.166;2022-08-19T10:47:50;21.27;;;14.18;;
23632;SDS011;11993;48.748;9.166;2022-08-19T10:50:17;20.60;;;12.95;;
23632;SDS011;11993;48.748;9.166;2022-08-19T10:53:06;16.42;;;11.55;;
23632;SDS011;11993;48.748;9.166;2022-08-19T10:55:35;16.08;;;11.70;;
23632;SDS011;11993;48.748;9.166;2022-08-19T10:58:20;16.65;;;11.68;;
23632;SDS011;11993;48.748;9.166;2022-08-19T11:00:54;48.90;;;34.92;;
23632;SDS011;11993;48.748;9.166;2022-08-19T11:03:22;19.13;;;14.80;;
23632;SDS011;11993;48.748;9.166;2022-08-19T11:06:02;13.13;;;10.45;;
23632;SDS011;11993;48.748;9.166;2022-08-19T11:08:29;14.95;;;9.88;;
23632;SDS011;11993;48.748;9.166;2022-08-19T11:10:58;16.20;;;11.35;;
23632;SDS011;11993;48.748;9.166;2022-08-19T11:13:29;12.93;;;9.85;;
23632;SDS011;11993;48.748;9.166;2022-08-19T11:15:59;12.40;;;9.55;;
23632;SDS011;11993;48.748;9.166;2022-08-19T11:18:26;15.25;;;9.18;;
23632;SDS011;11993;48.748;9.166;2022-08-19T11:20:51;12.13;;;8.55;;
23632;SDS011;11993;48.748;9.166;2022-08-19T11:23:17;12.93;;;10.00;;
23632;SDS011;11993;48.748;9.166;2022-08-19T11:25:43;13.95;;;9.93;;
23632;SDS011;11993;48.748;9.166;2022-08-19T11:28:10;14.57;;;10.52;;
23632;SDS011;11993;48.748;9.166;2022-08-19T11:30:37;10.43;;;9.00;;
23632;SDS011;11993;48.748;9.166;2022-08-19T11:33:03;12.20;;;8.07;;
23632;SDS011;11993;48.748;9.166;2022-08-19T11:35:29;15.25;;;9.57;;
23632;SDS011;11993;48.748;9.166;2022-08-19T11:37:54;13.73;;;9.25;;
23632;SDS011;11993;48.748;9.166;2022-08-19T11:40:26;10.23;;;8.90;;
23632;SDS011;11993;48.748;9.166;2022-08-19T11:42:51;14.25;;;8.90;;
23632;SDS011;11993;48.748;9.166;2022-08-19T11:45:21;15.32;;;11.15;;
23632;SDS011;11993;48.748;9.166;2022-08-19T11:47:51;18.42;;;11.68;;
23632;SDS011;11993;48.748;9.166;2022-08-19T11:50:17;14.63;;;11.30;;
23632;SDS011;11993;48.748;9.166;2022-08-19T11:52:43;11.43;;;8.68;;
23632;SDS011;11993;48.748;9.166;2022-08-19T11:55:09;18.55;;;15.48;;
23632;SDS011;11993;48.748;9.166;2022-08-19T11:57:36;16.98;;;12.82;;
23632;SDS011;11993;48.748;9.166;2022-08-19T12:00:03;9.82;;;8.82;;
23632;SDS011;11993;48.748;9.166;2022-08-19T12:02:30;10.23;;;8.52;;
23632;SDS011;11993;48.748;9.166;2022-08-19T12:04:56;16.02;;;8.68;;
23632;SDS011;11993;48.748;9.166;2022-08-19T12:07:22;10.00;;;8.90;;
23632;SDS011;11993;48.748;9.166;2022-08-19T12:09:48;12.57;;;8.25;;
23632;SDS011;11993;48.748;9.166;2022-08-19T12:12:13;13.40;;;7.95;;
23632;SDS011;11993;48.748;9.166;2022-08-19T12:14:39;11.75;;;7.63;;
23632;SDS011;11993;48.748;9.166;2022-08-19T12:17:04;9.55;;;8.10;;
23632;SDS011;11993;48.748;9.166;2022-08-19T12:19:32;11.48;;;7.57;;
23632;SDS011;11993;48.748;9.166;2022-08-19T12:21:59;8.95;;;7.72;;
23632;SDS011;11993;48.748;9.166;2022-08-19T12:24:31;10.20;;;7.32;;
23632;SDS011;11993;48.748;9.166;2022-08-19T12:26:58;10.15;;;7.43;;
23632;SDS011;11993;48.748;9.166;2022-08-19T12:29:26;8.85;;;6.60;;
23632;SDS011;11993;48.748;9.166;2022-08-19T12:31:54;8.98;;;7.10;;
23632;SDS011;11993;48.748;9.166;2022-08-19T12:34:25;8.63;;;6.63;;
23632;SDS011;11993;48.748;9.166;2022-08-19T12:36:54;12.13;;;7.22;;
23632;SDS011;11993;48.748;9.166;2022-08-19T12:39:21;13.13;;;7.32;;
23632;SDS011;11993;48.748;9.166;2022-08-19T12:41:47;7.00;;;6.20;;
23632;SDS011;11993;48.748;9.166;2022-08-19T12:44:14;7.95;;;6.60;;
23632;SDS011;11993;48.748;9.166;2022-08-19T12:46:39;8.65;;;6.30;;
23632;SDS011;11993;48.748;9.166;2022-08-19T12:49:05;10.20;;;7.78;;
23632;SDS011;11993;48.748;9.166;2022-08-19T12:51:30;14.32;;;12.07;;
23632;SDS011;11993;48.748;9.166;2022-08-19T12:53:56;14.23;;;11.80;;
23632;SDS011;11993;48.748;9.166;2022-08-19T12:56:22;17.98;;;13.35;;
23632;SDS011;11993;48.748;9.166;2022-08-19T12:58:48;20.40;;;14.90;;
23632;SDS011;11993;48.748;9.166;2022-08-19T13:01:14;17.67;;;14.45;;
23632;SDS011;11993;48.748;9.166;2022-08-19T13:03:41;22.20;;;16.67;;
23632;SDS011;11993;48.748;9.166;2022-08-19T13:06:08;17.75;;;15.82;;
23632;SDS011;11993;48.748;9.166;2022-08-19T13:08:34;20.90;;;18.35;;
23632;SDS011;11993;48.748;9.166;2022-08-19T13:11:10;21.60;;;16.85;;
23632;SDS011;11993;48.748;9.166;2022-08-19T13:13:38;28.30;;;23.38;;
23632;SDS011;11993;48.748;9.166;2022-08-19T13:16:06;29.45;;;25.08;;
23632;SDS011;11993;48.748;9.166;2022-08-19T13:18:33;29.08;;;21.02;;
23632;SDS011;11993;48.748;9.166;2022-08-19T13:21:02;28.45;;;22.98;;
23632;SDS011;11993;48.748;9.166;2022-08-19T13:23:29;27.80;;;24.15;;
23632;SDS011;11993;48.748;9.166;2022-08-19T13:25:58;28.23;;;24.27;;
23632;SDS011;11993;48.748;9.166;2022-08-19T13:28:25;27.08;;;23.15;;
23632;SDS011;11993;48.748;9.166;2022-08-19T13:30:50;28.48;;;23.45;;
23632;SDS011;11993;48.748;9.166;2022-08-19T13:33:35;33.88;;;26.90;;
23632;SDS011;11993;48.748;9.166;2022-08-19T13:36:00;34.50;;;28.63;;
23632;SDS011;11993;48.748;9.166;2022-08-19T13:38:27;31.00;;;25.13;;
23632;SDS011;11993;48.748;9.166;2022-08-19T13:40:53;31.80;;;25.70;;
23632;SDS011;11993;48.748;9.166;2022-08-19T13:43:21;33.83;;;27.92;;
23632;SDS011;11993;48.748;9.166;2022-08-19T13:45:50;31.23;;;25.35;;
23632;SDS011;11993;48.748;9.166;2022-08-19T13:48:18;33.10;;;27.55;;
23632;SDS011;11993;48.748;9.166;2022-08-19T13:50:44;31.80;;;25.15;;
23632;SDS011;11993;48.748;9.166;2022-08-19T13:53:12;29.77;;;26.55;;
23632;SDS011;11993;48.748;9.166;2022-08-19T13:55:38;32.58;;;26.75;;
23632;SDS011;11993;48.748;9.166;2022-08-19T13:58:04;29.73;;;26.25;;
23632;SDS011;11993;48.748;9.166;2022-08-19T14:00:32;31.95;;;26.52;;
23632;SDS011;11993;48.748;9.166;2022-08-19T14:03:00;38.47;;;31.55;;
23632;SDS011;11993;48.748;9.166;2022-08-19T14:05:27;33.58;;;27.35;;
23632;SDS011;11993;48.748;9.166;2022-08-19T14:07:54;34.08;;;29.23;;
23632;SDS011;11993;48.748;9.166;2022-08-19T14:10:20;34.50;;;28.10;;
23632;SDS011;11993;48.748;9.166;2022-08-19T14:12:48;40.83;;;30.30;;
23632;SDS011;11993;48.748;9.166;2022-08-19T14:15:14;38.22;;;30.48;;
23632;SDS011;11993;48.748;9.166;2022-08-19T14:17:41;33.03;;;26.67;;
23632;SDS011;11993;48.748;9.166;2022-08-19T14:20:08;35.15;;;27.20;;
23632;SDS011;11993;48.748;9.166;2022-08-19T14:22:36;33.95;;;28.98;;
23632;SDS011;11993;48.748;9.166;2022-08-19T14:25:12;39.28;;;29.75;;
23632;SDS011;11993;48.748;9.166;2022-08-19T14:27:43;35.47;;;31.17;;
23632;SDS011;11993;48.748;9.166;2022-08-19T14:30:11;30.67;;;25.15;;
23632;SDS011;11993;48.748;9.166;2022-08-19T14:32:39;30.33;;;26.80;;
23632;SDS011;11993;48.748;9.166;2022-08-19T14:35:05;31.02;;;25.98;;
23632;SDS011;11993;48.748;9.166;2022-08-19T14:37:33;29.48;;;24.50;;
23632;SDS011;11993;48.748;9.166;2022-08-19T14:39:59;32.95;;;27.52;;
23632;SDS011;11993;48.748;9.166;2022-08-19T14:42:25;36.75;;;28.58;;